Scroll down
FLIGHT INFORMATION
American Airlines

AAL4178

At Arrival Gate

KORD
 KMSP
DATE: 2020-03-29
GATE:  -
GATE DEPARTURE: 19:24
TAKEOFF: 19:31
DATE: 2020-03-29
GATE:  -
LANDING: 20:26
GATE ARRIVAL: 20:31
FLIGHT DATA
Crew: 
Speed: 
481 kts
Altitude: 
32,003 ft
Stage Length: 
289.8 nm
Block Time: 
1.1 hrs
Flight Time: 
0.9 hrs
Fuel Used: 
6,817 lb
Cleared Route: 
TRACK DATA
50,000 ft 1,000 kts
AIRCRAFT INFO AND CUMULATIVE STATS
Aircraft Type: 
B738BW
Registration: 
SELCAL: 
GHAC
MSN/LN: 
33227 / 4322
Operator: 
Total Flights: 
43
Total Block Time: 
82.7 hrs
Total Flight Time: 
70.8 hrs
Total Fuel Time: 
477,269 lb
DATALINK LOG | Newest first | Current as of: 2020-12-06 02:00:56
LABEL SEQUENCE CONTENT Dn/Up
QD324920:31 11.2▼ Dn
QC275720:26▼ Dn
2U1143KMSP 291953Z 34019G34KT 10SM -RA BKN023 OVC028 06/02 A2978 RMK AO2 PK WND 36034/1944 RAE20B53 SLP092 P0000 T00610022 $▲ Up
2U1143KMSP 291953Z 34019G34KT 10SM -RA BKN023 OVC028 06/02 A2978 RMK AO2 PK WND 36034/1944 RAE20B53 SLP092 P0000 T00610022 $▲ Up
2S1143KMSP▼ Dn
2U5919KMSP 291853Z 34015G21KT 10SM -RA OVC017 06/03 A2975 RMK AO2 PK WND 34028/1805 RAB1754 SLP079 P0000 T00560028 $▲ Up
2S5919KMSP▼ Dn
QB312719:31▼ Dn
QA240619:24 18▼ Dn
2U1754KORD 291851Z 24021G41KT 10SM OVC026 08/02 A2962 RMK AO2 PK WND 23047/1757 SLP029 T00830022 $▲ Up
5U1757KMSP 292308Z 32013G22KT 10SM BKN050 06/03 A2975▲ Up
5S1757KMSP▼ Dn
2S1754KORD▼ Dn
A31624CLEARED TO KMSP VIA PMPKN NEATO DLLAN RONIC KAMMA KKILR3. SQUAWK 1667.▲ Up
B31511KPHX KORD AAL190 N915NN ▼ Dn
A31623CLEARED TO KMSP VIA PMPKN NEATO DLLAN RONIC KAMMA KKILR3. SQUAWK 4516.▲ Up
A31531CLEARED TO KMSP VIA PMPKN NEATO DLLAN RONIC KAMMA KKILR3. SQUAWK 4555.▲ Up
Q01420[LINK ACK]▲ Up
Q01320[LINK TEST]▼ Dn


AIRCRAFT HISTORY
FLIGHT DATE FLIGHT NO. ORIGIN DESTINATION CLEARED ROUTE BLOCK TIME FLIGHT TIME FUEL USED PILOT
2020-10-30AAL713KCLT KMSY KCLT IPTAY CHOPZ ATL MGM SJI KMSY2 hrs1.7 hrs11,251 lbCharles Harris
2020-09-13AAL413KJFK KCLT KJFK RBV COPES MXE STOEN SACRI MURPH TOOBN HAMMZ GVE LYH KCLT1.9 hrs1.7 hrs10,766 lbCharles Harris
2020-08-13AAL369KDCA KJFK KDCA SIE BOTON HOGGS PANZE KARRS CAMRN ZETAL RW04R1.1 hrs0.9 hrs7,598 lbken rose
2020-07-17AAL1320KORD KDCA KORD MOBLE ADIME OTENS ANEWA JERRI NUSMM BUCKO FRDMM KDCA1.5 hrs1.3 hrs8,855 lbmike teague
2020-07-12AAL2780KDEN KORD KDEN NUGGS HIDEF SHOBO LUPTN MRENE EEONS WYNDM HCT OBH MYRRS KORD2.2 hrs1.8 hrs12,298 lbMichael Roth
2020-07-12AAL712KJAC KDEN KJAC SWEAT TOFUU KDEN1.4 hrs1.1 hrs7,291 lbMarc Ehnle
2020-07-11AAL711KBZN KJAC KBZN BOY QUIRT KJAC0.7 hrs0.5 hrs4,668 lbMarc Ehnle
2020-06-11AAL2783KDFW KBZN KDFW SPERA JGIRL CORTS BIGGD CMORE LOWGN ADM MRMAC ROLLS LBL DRAWL LAA HGO QUAIL FQF LAR BOY BRIGR RW123.1 hrs2.8 hrs16,095 lbDan Downs
2020-06-11AAL2904KSFO KDFW KSFO TYDYE TRUKN COSMC SYRAH JSICA ILC BCE RSK ESPAN FTI MDANO KDFW3.4 hrs3 hrs17,953 lbMichael Roth
2020-06-10AAL2639KORD KSFO KORD OLINN OREOS OBENE OGALE LNK DRABS HCT VOAXA ELLFF WEEMN MANRD TRALP GDGET CRLES KATTS RUMPS OAL INYOE KSFO4.3 hrs3.9 hrs22,945 lbMichael Roth
2020-05-31AAL3790KMSP KORD KMSP RST ZZIPR WELCM TEEOO MITEE BHAWK STNLE CUUPP CHMPN CLSBY FYTTE MOTRR COGSS MADII SOOLU KURKK VULCN HIMGO RRUDA RW10C1 hrs0.8 hrs6,131 lbGeorge M
2020-05-20AAL3728KORD KMSP 1.3 hrs1 hrs6,894 lbGeorge M
2020-03-31AAL2765KPHX KORD 3 hrs2.7 hrs17,821 lbGeorge M
2020-03-30AAL889KLAX KPHX 1.3 hrs1 hrs6,983 lbGeorge M
2020-03-30AAL1029KORD KLAX 4.1 hrs3.8 hrs25,820 lbGeorge M
2020-03-29AAL4178KMSP KORD 1.2 hrs0.9 hrs6,909 lbGeorge M
2020-03-29AAL4178KORD KMSP 1.1 hrs0.9 hrs6,817 lbGeorge M
2020-03-29AAL190KPHX KORD 3 hrs2.7 hrs16,982 lbGeorge M
2020-03-28AAL815KORD KPHX 3.9 hrs3.7 hrs23,775 lbGeorge M
2020-03-28AAL4178KMSP KORD 1.1 hrs0.9 hrs7,214 lbGeorge M
2020-03-28AAL4178KORD KMSP 1.3 hrs1 hrs8,375 lbGeorge M
2020-03-21AAL721KIAD KORD 1.9 hrs1.7 hrs11,199 lbGeorge M
2020-03-20AAL843KORD KIAD 1.7 hrs1.3 hrs9,364 lbGeorge M
2020-03-17AAL1933KPHX KORD 3 hrs2.7 hrs17,295 lbGeorge M
2020-03-16AAL2979KSBA KPHX 1.4 hrs1.2 hrs8,093 lbGeorge M
2020-03-16AAL1836KPHX KSBA 1.7 hrs1.4 hrs8,745 lbGeorge M
2020-03-15AAL372KMSP KPHX 3.2 hrs2.9 hrs20,634 lbGeorge M
2020-03-14AAL3200KORD KMSP 1.3 hrs1 hrs7,486 lbGeorge M
2020-03-06AAL3978KCLE KORD 1.5 hrs1 hrs7,684 lbGeorge M
2020-03-03AAL519KCLT KCLE 1.4 hrs1.1 hrs7,413 lbSteven Perry
2020-03-02AAL519KPVD KCLT 2 hrs1.8 hrs10,928 lbSteven Perry
2020-03-02AAL519KPHL KPVD 1.1 hrs0.8 hrs6,082 lbSteven Perry
2020-02-23AAL519KCLE KPHL 1.2 hrs1 hrs6,109 lbSteven Perry
2020-02-23AAL519KORD KCLE 1.2 hrs0.8 hrs6,006 lbSteven Perry
2020-02-15AAL814KDFW KORD 2 hrs1.7 hrs11,306 lbGeorge M
2020-02-15AAL1519KORD KDFW 2.3 hrs1.9 hrs12,486 lbSteven Perry
2020-02-10AAL1101KTPA KORD 2.7 hrs2.4 hrs16,386 lbGeorge M
2020-02-09AAL1101KORD KTPA 2.4 hrs2.2 hrs14,471 lbGeorge M
2020-02-09AAL4193KSDF KORD 1.4 hrs1.1 hrs7,662 lbGeorge M
2020-02-02AAL4076KORD KSDF 1 hrs0.7 hrs6,068 lbGeorge M
2020-01-26AAL2080KCLT KORD 1.8 hrs1.4 hrs10,213 lbGeorge M
2020-01-21AAL121KMSY KCLT 1.8 hrs1.5 hrs9,676 lbCharles Harris
2020-01-06AAL2013KDFW KMSY 1.5 hrs1.1 hrs8,523 lbCharles Harris